»·PEaware :: AAL576 KDEN-KLAS

AAL576 :: KDEN-KLAS

FLIGHT INFORMATION

Flight Status: Arrived
Operator:
American Airlines
More flights by this operator :: More flights under this callsign
Pilot: Anonymous 8274 (8274)
Aircraft: BOEING 737-300
(B733)
More flights by this aircraft type
Origin: KDEN Denver Intl
United States
Destination: KLAS McCarran Intl
United States
More flights between these airports :: More routes between these airports
Route: CONNR7 WERNR DBL J60 BCE STEWW CHOWW1
File this flight plan on PilotEdge
Remarks:
Altitude:
(Current/Filed)
30,000ft
Speed:
(Current/Filed)
450kts
Departed: 10-Mar-21 02:45 PM
Arrived: 10-Mar-21 04:23 PM
Distance/Time
Traveled:
544nm/1:38
Distance/Time
To Go:
Arrived

Flight Plot

Page will automatically refresh every two minutes.

Flight plan parsing failed; only flown route is shown


Map Options




Map Legend


Flown Route
Filed Route
Departure Airport
Arrival Airport
Navaid (VOR, NDB)
Fix

Horizontal Profiles

Position Reports

Time Latitude Longitude Heading Altitude Ground
Speed
10-Mar-21 14:12 39.854445 -104.670669 185 5378ft 0kts
10-Mar-21 14:13 39.854445 -104.670669 185 5378ft 0kts
10-Mar-21 14:14 39.854445 -104.670669 185 5378ft 0kts
10-Mar-21 14:15 39.854445 -104.670669 185 5378ft 0kts
10-Mar-21 14:16 39.854445 -104.670669 185 5378ft 0kts
10-Mar-21 14:17 39.854445 -104.670669 185 5378ft 0kts
10-Mar-21 14:18 39.854445 -104.670669 185 5378ft 0kts
10-Mar-21 14:19 39.854445 -104.670669 185 5378ft 0kts
10-Mar-21 14:20 39.854445 -104.670669 185 5378ft 0kts
10-Mar-21 14:21 39.854445 -104.670669 185 5378ft 0kts
10-Mar-21 14:22 39.854445 -104.670669 185 5378ft 0kts
10-Mar-21 14:23 39.854445 -104.670669 185 5378ft 0kts
10-Mar-21 14:24 39.854445 -104.670669 185 5378ft 0kts
10-Mar-21 14:25 39.854445 -104.670669 185 5378ft 0kts
10-Mar-21 14:26 39.854445 -104.670669 185 5378ft 0kts
10-Mar-21 14:28 39.854602 -104.670649 185 5378ft 2kts
10-Mar-21 14:29 39.855157 -104.670579 183 5378ft 0kts
10-Mar-21 14:30 39.855247 -104.670323 230 5378ft 0kts
10-Mar-21 14:31 39.855247 -104.670323 230 5378ft 0kts
10-Mar-21 14:32 39.855178 -104.670664 273 5378ft 5kts
10-Mar-21 14:33 39.855210 -104.673323 270 5378ft 11kts
10-Mar-21 14:34 39.855901 -104.678233 289 5378ft 10kts
10-Mar-21 14:35 39.855972 -104.682238 270 5376ft 11kts
10-Mar-21 14:36 39.855978 -104.682972 270 5373ft 0kts
10-Mar-21 14:37 39.855930 -104.683702 241 5371ft 7kts
10-Mar-21 14:38 39.853117 -104.684020 180 5371ft 15kts
10-Mar-21 14:39 39.846877 -104.684094 180 5367ft 27kts
10-Mar-21 14:40 39.841853 -104.684158 180 5365ft 0kts
10-Mar-21 14:41 39.841853 -104.684158 180 5365ft 0kts
10-Mar-21 14:42 39.841853 -104.684158 180 5365ft 0kts
10-Mar-21 14:43 39.841851 -104.684158 180 5365ft 0kts
10-Mar-21 14:44 39.840838 -104.684110 196 5365ft 4kts
10-Mar-21 14:45 39.840754 -104.697306 270 5365ft 122kts
10-Mar-21 14:46 39.837438 -104.756376 269 6655ft 168kts
10-Mar-21 14:47 39.839933 -104.835177 276 8302ft 219kts
10-Mar-21 14:48 39.837493 -104.929981 258 10078ft 274kts
10-Mar-21 14:49 39.815141 -105.043935 256 11548ft 335kts
10-Mar-21 14:50 39.790444 -105.167226 256 14636ft 336kts
10-Mar-21 14:51 39.764286 -105.296186 254 17273ft 347kts
10-Mar-21 14:51 39.741942 -105.405583 254 19504ft 349kts
10-Mar-21 14:53 39.712742 -105.547592 254 22453ft 343kts
10-Mar-21 14:54 39.688245 -105.668732 256 23241ft 348kts
10-Mar-21 14:55 39.671486 -105.792273 257 25400ft 347kts
10-Mar-21 14:56 39.654381 -105.918020 257 26998ft 354kts
10-Mar-21 14:56 39.639808 -106.024262 257 28331ft 356kts
10-Mar-21 14:57 39.622504 -106.149398 256 29899ft 351kts
10-Mar-21 14:59 39.601112 -106.302721 256 29891ft 354kts
10-Mar-21 15:00 39.582643 -106.433858 256 29883ft 355kts
10-Mar-21 15:01 39.563702 -106.567219 256 29820ft 353kts
10-Mar-21 15:01 39.546035 -106.675931 242 29777ft 352kts
10-Mar-21 15:02 39.493406 -106.784074 239 29833ft 351kts
10-Mar-21 15:03 39.441442 -106.891209 242 29821ft 350kts
10-Mar-21 15:05 39.405228 -107.031756 250 29826ft 352kts
10-Mar-21 15:05 39.380164 -107.132214 250 29824ft 351kts
10-Mar-21 15:06 39.349847 -107.253053 250 29825ft 351kts
10-Mar-21 15:07 39.319594 -107.373155 250 29825ft 352kts
10-Mar-21 15:08 39.288987 -107.493942 250 29824ft 352kts
10-Mar-21 15:09 39.258241 -107.614665 250 29825ft 352kts
10-Mar-21 15:10 39.226940 -107.737168 249 29826ft 352kts
10-Mar-21 15:11 39.194584 -107.862995 249 29824ft 351kts
10-Mar-21 15:12 39.160674 -107.994130 249 29824ft 351kts
10-Mar-21 15:13 39.126633 -108.125076 249 29824ft 351kts
10-Mar-21 15:14 39.092716 -108.254869 249 29825ft 351kts
10-Mar-21 15:15 39.059000 -108.383222 249 29825ft 351kts
10-Mar-21 15:16 39.025844 -108.508803 249 29825ft 351kts
10-Mar-21 15:17 38.992627 -108.633992 249 29825ft 351kts
10-Mar-21 15:18 38.960728 -108.753842 249 29826ft 351kts
10-Mar-21 15:19 38.928613 -108.873752 249 29826ft 351kts
10-Mar-21 15:20 38.897425 -108.989596 249 29819ft 351kts
10-Mar-21 15:21 38.865114 -109.108279 249 29825ft 351kts
10-Mar-21 15:22 38.832977 -109.226511 249 29824ft 351kts
10-Mar-21 15:23 38.800424 -109.345725 249 29824ft 351kts
10-Mar-21 15:24 38.767854 -109.464511 249 29824ft 351kts
10-Mar-21 15:25 38.735091 -109.583457 249 29824ft 351kts
10-Mar-21 15:26 38.703768 -109.696780 249 29822ft 351kts
10-Mar-21 15:27 38.668417 -109.824054 248 29824ft 350kts
10-Mar-21 15:28 38.633588 -109.948744 248 29825ft 351kts
10-Mar-21 15:29 38.596861 -110.079580 248 29824ft 351kts
10-Mar-21 15:30 38.560415 -110.208747 248 29824ft 351kts
10-Mar-21 15:31 38.527225 -110.325819 248 29825ft 351kts
10-Mar-21 15:32 38.493077 -110.445729 248 29824ft 351kts
10-Mar-21 15:33 38.456212 -110.574578 248 29824ft 351kts
10-Mar-21 15:34 38.424575 -110.684760 248 29810ft 351kts
10-Mar-21 15:35 38.375748 -110.793929 240 29824ft 349kts
10-Mar-21 15:36 38.324289 -110.908758 240 29875ft 372kts
10-Mar-21 15:37 38.272827 -111.024282 240 29896ft 371kts
10-Mar-21 15:38 38.221062 -111.140134 240 29898ft 371kts
10-Mar-21 15:39 38.168737 -111.256829 240 29898ft 371kts
10-Mar-21 15:40 38.117074 -111.371633 240 29899ft 371kts
10-Mar-21 15:41 38.064673 -111.487624 240 29898ft 371kts
10-Mar-21 15:42 38.011922 -111.604010 240 29898ft 371kts
10-Mar-21 15:43 37.961760 -111.714443 239 29901ft 371kts
10-Mar-21 15:44 37.909027 -111.830016 239 29896ft 371kts
10-Mar-21 15:45 37.858706 -111.939393 239 29899ft 371kts
10-Mar-21 15:46 37.805129 -112.055850 239 29898ft 371kts
10-Mar-21 15:47 37.750273 -112.174747 239 29896ft 371kts
10-Mar-21 15:48 37.695556 -112.292900 239 29898ft 371kts
10-Mar-21 15:49 37.650319 -112.413919 245 29900ft 370kts
10-Mar-21 15:50 37.607686 -112.534205 245 29898ft 370kts
10-Mar-21 15:51 37.566483 -112.650105 244 29898ft 370kts
10-Mar-21 15:52 37.525111 -112.766284 244 29901ft 372kts
10-Mar-21 15:53 37.482488 -112.885263 244 29898ft 371kts
10-Mar-21 15:54 37.439714 -113.004201 244 29897ft 372kts
10-Mar-21 15:55 37.396996 -113.122502 244 29899ft 372kts
10-Mar-21 15:56 37.353840 -113.241547 244 29899ft 372kts
10-Mar-21 15:57 37.310809 -113.359770 244 29898ft 372kts
10-Mar-21 15:58 37.267375 -113.478642 244 29899ft 372kts
10-Mar-21 15:59 37.196058 -113.566345 209 29886ft 385kts
10-Mar-21 16:00 37.098776 -113.621593 211 29897ft 383kts
10-Mar-21 16:01 37.001269 -113.678618 210 29901ft 384kts
10-Mar-21 16:02 36.902921 -113.735988 210 29415ft 385kts
10-Mar-21 16:03 36.806759 -113.791905 210 27574ft 382kts
10-Mar-21 16:04 36.708983 -113.848783 209 25741ft 382kts
10-Mar-21 16:05 36.611676 -113.905237 208 23923ft 383kts
10-Mar-21 16:06 36.539213 -113.997633 234 22094ft 370kts
10-Mar-21 16:07 36.476827 -114.098917 233 20270ft 360kts
10-Mar-21 16:08 36.415785 -114.196926 233 18892ft 349kts
10-Mar-21 16:09 36.360885 -114.283737 233 18041ft 304kts
10-Mar-21 16:10 36.308673 -114.365661 232 16136ft 299kts
10-Mar-21 16:11 36.257571 -114.446260 238 14306ft 292kts
10-Mar-21 16:12 36.230580 -114.539896 251 12522ft 285kts
10-Mar-21 16:13 36.205574 -114.631994 251 10797ft 280kts
10-Mar-21 16:14 36.180905 -114.722614 249 9037ft 278kts
10-Mar-21 16:15 36.158134 -114.806124 248 8302ft 242kts
10-Mar-21 16:16 36.136589 -114.884460 249 6892ft 238kts
10-Mar-21 16:17 36.137199 -114.966159 271 5823ft 237kts
10-Mar-21 16:18 36.141545 -115.042909 269 5144ft 215kts
10-Mar-21 16:19 36.141567 -115.108911 273 3619ft 170kts
10-Mar-21 16:20 36.122764 -115.143281 208 2879ft 129kts
10-Mar-21 16:21 36.090285 -115.161667 207 2186ft 109kts
10-Mar-21 16:22 36.078582 -115.168436 189 2185ft 15kts
10-Mar-21 16:23 36.078017 -115.166612 89 2185ft 12kts
10-Mar-21 16:24 36.078026 -115.161072 90 2185ft 17kts
10-Mar-21 16:25 36.078046 -115.154174 90 2185ft 21kts
10-Mar-21 16:26 36.077825 -115.148075 93 2185ft 20kts
10-Mar-21 16:27 36.077565 -115.139414 89 2185ft 24kts
10-Mar-21 16:28 36.078294 -115.138523 269 2185ft 8kts
10-Mar-21 16:29 36.079866 -115.139584 351 2185ft 3kts

Navigation Log

Ident Type
Flight plan parsing failed, navigation log unavailable